sensor_id;sensor_type;location;lat;lon;timestamp;temperature;humidity
32977;DHT22;47687;50.842;4.450;2022-12-07T00:00:48;6.50;99.90
32977;DHT22;47687;50.842;4.450;2022-12-07T00:03:14;6.30;99.90
32977;DHT22;47687;50.842;4.450;2022-12-07T00:05:39;6.30;99.90
32977;DHT22;47687;50.842;4.450;2022-12-07T00:08:05;6.30;99.90
32977;DHT22;47687;50.842;4.450;2022-12-07T00:10:33;6.30;99.90
32977;DHT22;47687;50.842;4.450;2022-12-07T00:12:59;6.30;99.90
32977;DHT22;47687;50.842;4.450;2022-12-07T00:15:24;6.30;99.90
32977;DHT22;47687;50.842;4.450;2022-12-07T00:17:50;6.20;99.90
32977;DHT22;47687;50.842;4.450;2022-12-07T00:20:16;6.20;99.90
32977;DHT22;47687;50.842;4.450;2022-12-07T00:22:41;6.00;99.90
32977;DHT22;47687;50.842;4.450;2022-12-07T00:25:07;5.90;99.90
32977;DHT22;47687;50.842;4.450;2022-12-07T00:27:32;5.80;99.90
32977;DHT22;47687;50.842;4.450;2022-12-07T00:29:58;5.70;99.90
32977;DHT22;47687;50.842;4.450;2022-12-07T00:32:23;5.70;99.90
32977;DHT22;47687;50.842;4.450;2022-12-07T00:34:49;5.70;99.90
32977;DHT22;47687;50.842;4.450;2022-12-07T00:37:14;5.60;99.90
32977;DHT22;47687;50.842;4.450;2022-12-07T00:39:40;5.50;99.90
32977;DHT22;47687;50.842;4.450;2022-12-07T00:42:06;5.50;99.90
32977;DHT22;47687;50.842;4.450;2022-12-07T00:44:31;5.50;99.90
32977;DHT22;47687;50.842;4.450;2022-12-07T00:46:57;5.50;99.90
32977;DHT22;47687;50.842;4.450;2022-12-07T00:49:22;5.60;99.90
32977;DHT22;47687;50.842;4.450;2022-12-07T00:51:49;5.40;99.90
32977;DHT22;47687;50.842;4.450;2022-12-07T00:54:14;5.40;99.90
32977;DHT22;47687;50.842;4.450;2022-12-07T00:56:40;5.20;99.90
32977;DHT22;47687;50.842;4.450;2022-12-07T00:59:06;5.20;99.90
32977;DHT22;47687;50.842;4.450;2022-12-07T01:01:34;5.10;99.90
32977;DHT22;47687;50.842;4.450;2022-12-07T01:04:00;5.10;99.90
32977;DHT22;47687;50.842;4.450;2022-12-07T01:06:29;5.10;99.90
32977;DHT22;47687;50.842;4.450;2022-12-07T01:08:55;5.00;99.90
32977;DHT22;47687;50.842;4.450;2022-12-07T01:11:23;5.00;99.90
32977;DHT22;47687;50.842;4.450;2022-12-07T01:13:51;5.00;99.90
32977;DHT22;47687;50.842;4.450;2022-12-07T01:16:17;5.00;99.90
32977;DHT22;47687;50.842;4.450;2022-12-07T01:18:47;5.00;99.90
32977;DHT22;47687;50.842;4.450;2022-12-07T01:21:18;5.00;99.90
32977;DHT22;47687;50.842;4.450;2022-12-07T01:23:46;5.00;99.90
32977;DHT22;47687;50.842;4.450;2022-12-07T01:26:14;5.10;99.90
32977;DHT22;47687;50.842;4.450;2022-12-07T01:28:40;5.10;99.90
32977;DHT22;47687;50.842;4.450;2022-12-07T01:31:09;5.10;99.90
32977;DHT22;47687;50.842;4.450;2022-12-07T01:33:38;5.10;99.90
32977;DHT22;47687;50.842;4.450;2022-12-07T01:36:05;5.00;99.90
32977;DHT22;47687;50.842;4.450;2022-12-07T01:38:32;5.10;99.90
32977;DHT22;47687;50.842;4.450;2022-12-07T01:40:58;5.10;99.90
32977;DHT22;47687;50.842;4.450;2022-12-07T01:43:26;5.10;99.90
32977;DHT22;47687;50.842;4.450;2022-12-07T01:45:52;5.10;99.90
32977;DHT22;47687;50.842;4.450;2022-12-07T01:48:26;5.20;99.90
32977;DHT22;47687;50.842;4.450;2022-12-07T01:50:54;5.20;99.90
32977;DHT22;47687;50.842;4.450;2022-12-07T01:53:24;5.30;99.90
32977;DHT22;47687;50.842;4.450;2022-12-07T01:55:52;5.30;99.90
32977;DHT22;47687;50.842;4.450;2022-12-07T01:58:18;5.30;99.90
32977;DHT22;47687;50.842;4.450;2022-12-07T02:00:44;5.30;99.90
32977;DHT22;47687;50.842;4.450;2022-12-07T02:03:18;5.20;99.90
32977;DHT22;47687;50.842;4.450;2022-12-07T02:05:46;5.30;99.90
32977;DHT22;47687;50.842;4.450;2022-12-07T02:08:12;5.40;99.90
32977;DHT22;47687;50.842;4.450;2022-12-07T02:10:38;5.40;99.90
32977;DHT22;47687;50.842;4.450;2022-12-07T02:13:10;5.50;99.90
32977;DHT22;47687;50.842;4.450;2022-12-07T02:21:47;5.70;99.90
32977;DHT22;47687;50.842;4.450;2022-12-07T02:24:36;5.80;99.90
32977;DHT22;47687;50.842;4.450;2022-12-07T02:29:50;5.90;99.90
32977;DHT22;47687;50.842;4.450;2022-12-07T02:33:03;6.00;99.90
32977;DHT22;47687;50.842;4.450;2022-12-07T02:35:33;6.10;99.90
32977;DHT22;47687;50.842;4.450;2022-12-07T02:41:26;6.20;99.90
32977;DHT22;47687;50.842;4.450;2022-12-07T02:43:56;6.20;99.90
32977;DHT22;47687;50.842;4.450;2022-12-07T02:46:36;6.20;99.90
32977;DHT22;47687;50.842;4.450;2022-12-07T02:49:03;6.20;99.90
32977;DHT22;47687;50.842;4.450;2022-12-07T02:51:33;6.20;99.90
32977;DHT22;47687;50.842;4.450;2022-12-07T02:53:59;6.20;99.90
32977;DHT22;47687;50.842;4.450;2022-12-07T03:07:01;5.50;99.90
32977;DHT22;47687;50.842;4.450;2022-12-07T03:09:45;5.30;99.90
32977;DHT22;47687;50.842;4.450;2022-12-07T03:12:19;5.30;99.90
32977;DHT22;47687;50.842;4.450;2022-12-07T03:14:52;5.20;99.90
32977;DHT22;47687;50.842;4.450;2022-12-07T03:17:25;5.30;99.90
32977;DHT22;47687;50.842;4.450;2022-12-07T03:19:55;5.10;99.90
32977;DHT22;47687;50.842;4.450;2022-12-07T03:22:23;5.10;99.90
32977;DHT22;47687;50.842;4.450;2022-12-07T03:24:57;5.00;99.90
32977;DHT22;47687;50.842;4.450;2022-12-07T03:32:30;5.20;99.90
32977;DHT22;47687;50.842;4.450;2022-12-07T03:35:08;5.30;99.90
32977;DHT22;47687;50.842;4.450;2022-12-07T03:38:05;5.40;99.90
32977;DHT22;47687;50.842;4.450;2022-12-07T03:40:43;5.40;99.90
32977;DHT22;47687;50.842;4.450;2022-12-07T03:43:10;5.40;99.90
32977;DHT22;47687;50.842;4.450;2022-12-07T03:45:42;5.30;99.90
32977;DHT22;47687;50.842;4.450;2022-12-07T03:48:33;5.20;99.90
32977;DHT22;47687;50.842;4.450;2022-12-07T03:53:46;5.00;99.90
32977;DHT22;47687;50.842;4.450;2022-12-07T03:56:12;4.90;99.90
32977;DHT22;47687;50.842;4.450;2022-12-07T03:58:39;5.80;99.90
32977;DHT22;47687;50.842;4.450;2022-12-07T04:01:05;4.80;99.90
32977;DHT22;47687;50.842;4.450;2022-12-07T04:03:31;4.80;99.90
32977;DHT22;47687;50.842;4.450;2022-12-07T04:05:57;4.70;99.90
32977;DHT22;47687;50.842;4.450;2022-12-07T04:08:24;4.60;99.90
32977;DHT22;47687;50.842;4.450;2022-12-07T04:10:50;4.60;99.90
32977;DHT22;47687;50.842;4.450;2022-12-07T04:13:15;4.50;99.90
32977;DHT22;47687;50.842;4.450;2022-12-07T04:15:41;4.50;99.90
32977;DHT22;47687;50.842;4.450;2022-12-07T04:18:07;4.50;99.90
32977;DHT22;47687;50.842;4.450;2022-12-07T04:20:33;4.50;99.90
32977;DHT22;47687;50.842;4.450;2022-12-07T04:22:58;4.50;99.90
32977;DHT22;47687;50.842;4.450;2022-12-07T04:25:24;4.50;99.90
32977;DHT22;47687;50.842;4.450;2022-12-07T04:27:50;4.40;99.90
32977;DHT22;47687;50.842;4.450;2022-12-07T04:30:15;4.40;99.90
32977;DHT22;47687;50.842;4.450;2022-12-07T04:32:41;4.40;99.90
32977;DHT22;47687;50.842;4.450;2022-12-07T04:35:07;4.30;99.90
32977;DHT22;47687;50.842;4.450;2022-12-07T04:37:33;4.40;99.90
32977;DHT22;47687;50.842;4.450;2022-12-07T04:39:59;4.40;99.90
32977;DHT22;47687;50.842;4.450;2022-12-07T04:42:24;4.60;99.90
32977;DHT22;47687;50.842;4.450;2022-12-07T04:44:50;4.90;99.90
32977;DHT22;47687;50.842;4.450;2022-12-07T04:47:16;4.80;99.90
32977;DHT22;47687;50.842;4.450;2022-12-07T04:49:42;4.80;99.90
32977;DHT22;47687;50.842;4.450;2022-12-07T04:52:08;4.90;99.90
32977;DHT22;47687;50.842;4.450;2022-12-07T04:54:33;4.90;99.90
32977;DHT22;47687;50.842;4.450;2022-12-07T04:56:59;4.80;99.90
32977;DHT22;47687;50.842;4.450;2022-12-07T04:59:25;4.90;99.90
32977;DHT22;47687;50.842;4.450;2022-12-07T05:01:50;4.80;99.90
32977;DHT22;47687;50.842;4.450;2022-12-07T05:04:19;4.80;99.90
32977;DHT22;47687;50.842;4.450;2022-12-07T05:06:45;4.90;99.90
32977;DHT22;47687;50.842;4.450;2022-12-07T05:09:11;4.90;99.90
32977;DHT22;47687;50.842;4.450;2022-12-07T05:11:36;5.10;99.90
32977;DHT22;47687;50.842;4.450;2022-12-07T05:14:17;4.80;99.90
32977;DHT22;47687;50.842;4.450;2022-12-07T05:16:44;4.80;99.90
32977;DHT22;47687;50.842;4.450;2022-12-07T05:19:11;4.80;99.90
32977;DHT22;47687;50.842;4.450;2022-12-07T05:21:37;4.90;99.90
32977;DHT22;47687;50.842;4.450;2022-12-07T05:24:04;5.00;99.90
32977;DHT22;47687;50.842;4.450;2022-12-07T05:26:30;4.90;99.90
32977;DHT22;47687;50.842;4.450;2022-12-07T05:28:56;4.90;99.90
32977;DHT22;47687;50.842;4.450;2022-12-07T05:31:23;5.00;99.90
32977;DHT22;47687;50.842;4.450;2022-12-07T05:33:49;5.00;99.90
32977;DHT22;47687;50.842;4.450;2022-12-07T05:36:15;5.10;99.90
32977;DHT22;47687;50.842;4.450;2022-12-07T05:38:40;5.20;99.90
32977;DHT22;47687;50.842;4.450;2022-12-07T05:41:07;5.30;99.90
32977;DHT22;47687;50.842;4.450;2022-12-07T05:43:33;5.30;99.90
32977;DHT22;47687;50.842;4.450;2022-12-07T05:45:59;5.30;99.90
32977;DHT22;47687;50.842;4.450;2022-12-07T05:48:25;5.40;99.90
32977;DHT22;47687;50.842;4.450;2022-12-07T05:50:51;5.40;99.90
32977;DHT22;47687;50.842;4.450;2022-12-07T05:53:18;5.40;99.90
32977;DHT22;47687;50.842;4.450;2022-12-07T05:55:44;5.40;99.90
32977;DHT22;47687;50.842;4.450;2022-12-07T05:58:10;5.40;99.90
32977;DHT22;47687;50.842;4.450;2022-12-07T06:00:55;5.40;99.90
32977;DHT22;47687;50.842;4.450;2022-12-07T06:03:21;5.50;99.90
32977;DHT22;47687;50.842;4.450;2022-12-07T06:05:46;5.40;99.90
32977;DHT22;47687;50.842;4.450;2022-12-07T06:08:12;5.40;99.90
32977;DHT22;47687;50.842;4.450;2022-12-07T06:10:37;5.40;99.90
32977;DHT22;47687;50.842;4.450;2022-12-07T06:13:03;5.40;99.90
32977;DHT22;47687;50.842;4.450;2022-12-07T06:15:29;5.50;99.90
32977;DHT22;47687;50.842;4.450;2022-12-07T06:17:54;5.50;99.90
32977;DHT22;47687;50.842;4.450;2022-12-07T06:20:20;5.50;99.90
32977;DHT22;47687;50.842;4.450;2022-12-07T06:22:45;5.60;99.90
32977;DHT22;47687;50.842;4.450;2022-12-07T06:25:11;5.50;99.90
32977;DHT22;47687;50.842;4.450;2022-12-07T06:27:37;5.60;99.90
32977;DHT22;47687;50.842;4.450;2022-12-07T06:30:04;5.50;99.90
32977;DHT22;47687;50.842;4.450;2022-12-07T06:32:33;5.50;99.90
32977;DHT22;47687;50.842;4.450;2022-12-07T06:34:59;5.50;99.90
32977;DHT22;47687;50.842;4.450;2022-12-07T06:37:28;5.40;99.90
32977;DHT22;47687;50.842;4.450;2022-12-07T06:39:54;5.30;99.90
32977;DHT22;47687;50.842;4.450;2022-12-07T06:42:19;5.30;99.90
32977;DHT22;47687;50.842;4.450;2022-12-07T06:44:46;5.30;99.90
32977;DHT22;47687;50.842;4.450;2022-12-07T06:47:12;5.30;99.90
32977;DHT22;47687;50.842;4.450;2022-12-07T06:49:38;5.30;99.90
32977;DHT22;47687;50.842;4.450;2022-12-07T06:52:03;5.40;99.90
32977;DHT22;47687;50.842;4.450;2022-12-07T06:54:30;5.50;99.90
32977;DHT22;47687;50.842;4.450;2022-12-07T06:56:56;5.80;99.90
32977;DHT22;47687;50.842;4.450;2022-12-07T06:59:22;6.10;99.90
32977;DHT22;47687;50.842;4.450;2022-12-07T07:01:48;5.60;99.90
32977;DHT22;47687;50.842;4.450;2022-12-07T07:04:13;5.60;99.90
32977;DHT22;47687;50.842;4.450;2022-12-07T07:06:39;5.80;99.90
32977;DHT22;47687;50.842;4.450;2022-12-07T07:09:05;6.50;99.90
32977;DHT22;47687;50.842;4.450;2022-12-07T07:11:30;6.20;99.90
32977;DHT22;47687;50.842;4.450;2022-12-07T07:13:56;5.80;99.90
32977;DHT22;47687;50.842;4.450;2022-12-07T07:16:29;6.30;99.90
32977;DHT22;47687;50.842;4.450;2022-12-07T07:18:55;6.50;99.90
32977;DHT22;47687;50.842;4.450;2022-12-07T07:21:21;5.70;99.90
32977;DHT22;47687;50.842;4.450;2022-12-07T07:23:46;6.20;99.90
32977;DHT22;47687;50.842;4.450;2022-12-07T07:26:12;5.60;99.90
32977;DHT22;47687;50.842;4.450;2022-12-07T07:28:38;5.50;99.90
32977;DHT22;47687;50.842;4.450;2022-12-07T07:31:03;5.50;99.90
32977;DHT22;47687;50.842;4.450;2022-12-07T07:33:29;5.40;99.90
32977;DHT22;47687;50.842;4.450;2022-12-07T07:35:54;5.30;99.90
32977;DHT22;47687;50.842;4.450;2022-12-07T07:38:20;5.20;99.90
32977;DHT22;47687;50.842;4.450;2022-12-07T07:40:46;5.20;99.90
32977;DHT22;47687;50.842;4.450;2022-12-07T07:43:11;5.20;99.90
32977;DHT22;47687;50.842;4.450;2022-12-07T07:45:37;5.20;99.90
32977;DHT22;47687;50.842;4.450;2022-12-07T07:48:03;5.10;99.90
32977;DHT22;47687;50.842;4.450;2022-12-07T07:50:28;5.10;99.90
32977;DHT22;47687;50.842;4.450;2022-12-07T07:52:54;5.00;99.90
32977;DHT22;47687;50.842;4.450;2022-12-07T07:55:19;4.90;99.90
32977;DHT22;47687;50.842;4.450;2022-12-07T07:57:45;5.00;99.90
32977;DHT22;47687;50.842;4.450;2022-12-07T08:00:13;5.00;99.90
32977;DHT22;47687;50.842;4.450;2022-12-07T08:02:40;4.90;99.90
32977;DHT22;47687;50.842;4.450;2022-12-07T08:05:06;5.00;99.90
32977;DHT22;47687;50.842;4.450;2022-12-07T08:07:32;4.90;99.90
32977;DHT22;47687;50.842;4.450;2022-12-07T08:09:58;4.90;99.90
32977;DHT22;47687;50.842;4.450;2022-12-07T08:12:23;4.80;99.90
32977;DHT22;47687;50.842;4.450;2022-12-07T08:14:49;4.80;99.90
32977;DHT22;47687;50.842;4.450;2022-12-07T08:17:14;4.80;99.90
32977;DHT22;47687;50.842;4.450;2022-12-07T08:19:40;4.80;99.90
32977;DHT22;47687;50.842;4.450;2022-12-07T08:22:05;4.70;99.90
32977;DHT22;47687;50.842;4.450;2022-12-07T08:24:34;4.80;99.90
32977;DHT22;47687;50.842;4.450;2022-12-07T08:26:59;4.70;99.90
32977;DHT22;47687;50.842;4.450;2022-12-07T08:29:25;4.70;99.90
32977;DHT22;47687;50.842;4.450;2022-12-07T08:31:50;4.80;99.90
32977;DHT22;47687;50.842;4.450;2022-12-07T08:34:16;4.80;99.90
32977;DHT22;47687;50.842;4.450;2022-12-07T08:36:42;4.90;99.90
32977;DHT22;47687;50.842;4.450;2022-12-07T08:39:07;4.90;99.90
32977;DHT22;47687;50.842;4.450;2022-12-07T08:41:33;4.90;99.90
32977;DHT22;47687;50.842;4.450;2022-12-07T08:43:58;5.00;99.90
32977;DHT22;47687;50.842;4.450;2022-12-07T08:46:28;5.00;99.90
32977;DHT22;47687;50.842;4.450;2022-12-07T08:49:03;5.20;99.90
32977;DHT22;47687;50.842;4.450;2022-12-07T08:51:30;5.30;99.90
32977;DHT22;47687;50.842;4.450;2022-12-07T08:53:58;5.40;99.90
32977;DHT22;47687;50.842;4.450;2022-12-07T08:56:24;5.50;99.90
32977;DHT22;47687;50.842;4.450;2022-12-07T08:58:50;5.70;99.90
32977;DHT22;47687;50.842;4.450;2022-12-07T09:01:15;5.70;99.90
32977;DHT22;47687;50.842;4.450;2022-12-07T09:03:41;5.90;99.90
32977;DHT22;47687;50.842;4.450;2022-12-07T09:06:07;6.10;99.90
32977;DHT22;47687;50.842;4.450;2022-12-07T09:08:37;6.50;99.90
32977;DHT22;47687;50.842;4.450;2022-12-07T09:11:04;6.60;99.90
32977;DHT22;47687;50.842;4.450;2022-12-07T09:13:30;6.70;99.90
32977;DHT22;47687;50.842;4.450;2022-12-07T09:15:56;6.80;99.90
32977;DHT22;47687;50.842;4.450;2022-12-07T09:18:21;7.00;99.90
32977;DHT22;47687;50.842;4.450;2022-12-07T09:20:47;7.20;99.90
32977;DHT22;47687;50.842;4.450;2022-12-07T09:23:12;7.30;99.90
32977;DHT22;47687;50.842;4.450;2022-12-07T09:25:38;7.40;99.90
32977;DHT22;47687;50.842;4.450;2022-12-07T09:28:04;7.50;99.90
32977;DHT22;47687;50.842;4.450;2022-12-07T09:30:29;7.50;99.90
32977;DHT22;47687;50.842;4.450;2022-12-07T09:32:56;7.70;99.90
32977;DHT22;47687;50.842;4.450;2022-12-07T09:35:22;7.90;99.90
32977;DHT22;47687;50.842;4.450;2022-12-07T09:37:48;7.90;99.90
32977;DHT22;47687;50.842;4.450;2022-12-07T09:40:15;7.80;99.90
32977;DHT22;47687;50.842;4.450;2022-12-07T09:42:44;7.80;99.90
32977;DHT22;47687;50.842;4.450;2022-12-07T09:45:23;7.90;99.90
32977;DHT22;47687;50.842;4.450;2022-12-07T09:47:49;8.00;99.90
32977;DHT22;47687;50.842;4.450;2022-12-07T09:50:26;8.10;99.90
32977;DHT22;47687;50.842;4.450;2022-12-07T09:52:53;8.10;99.90
32977;DHT22;47687;50.842;4.450;2022-12-07T09:55:27;8.00;99.90
32977;DHT22;47687;50.842;4.450;2022-12-07T09:57:54;7.90;99.90
32977;DHT22;47687;50.842;4.450;2022-12-07T10:00:22;7.90;99.90
32977;DHT22;47687;50.842;4.450;2022-12-07T10:02:59;7.80;99.90
32977;DHT22;47687;50.842;4.450;2022-12-07T10:05:45;7.80;99.90
32977;DHT22;47687;50.842;4.450;2022-12-07T10:08:12;7.80;99.90
32977;DHT22;47687;50.842;4.450;2022-12-07T10:10:39;8.00;99.90
32977;DHT22;47687;50.842;4.450;2022-12-07T10:13:08;8.00;99.90
32977;DHT22;47687;50.842;4.450;2022-12-07T10:18:25;8.40;99.90
32977;DHT22;47687;50.842;4.450;2022-12-07T10:21:05;8.50;99.90
32977;DHT22;47687;50.842;4.450;2022-12-07T10:23:33;8.70;99.90
32977;DHT22;47687;50.842;4.450;2022-12-07T10:26:15;8.70;99.90
32977;DHT22;47687;50.842;4.450;2022-12-07T10:28:44;8.90;99.90
32977;DHT22;47687;50.842;4.450;2022-12-07T10:31:18;8.60;99.90
32977;DHT22;47687;50.842;4.450;2022-12-07T10:33:59;8.60;99.90
32977;DHT22;47687;50.842;4.450;2022-12-07T10:38:58;8.50;99.90
32977;DHT22;47687;50.842;4.450;2022-12-07T10:41:24;8.60;99.90
32977;DHT22;47687;50.842;4.450;2022-12-07T10:43:53;8.50;99.90
32977;DHT22;47687;50.842;4.450;2022-12-07T10:46:26;8.50;99.90
32977;DHT22;47687;50.842;4.450;2022-12-07T10:49:08;8.50;99.90
32977;DHT22;47687;50.842;4.450;2022-12-07T10:54:44;8.50;99.90
32977;DHT22;47687;50.842;4.450;2022-12-07T10:57:37;8.50;99.90
32977;DHT22;47687;50.842;4.450;2022-12-07T11:02:45;8.40;99.90
32977;DHT22;47687;50.842;4.450;2022-12-07T11:05:30;8.20;99.90
32977;DHT22;47687;50.842;4.450;2022-12-07T11:08:05;7.90;99.90
32977;DHT22;47687;50.842;4.450;2022-12-07T11:10:46;8.00;99.90
32977;DHT22;47687;50.842;4.450;2022-12-07T11:21:56;8.00;99.90
32977;DHT22;47687;50.842;4.450;2022-12-07T11:24:47;7.80;99.90
32977;DHT22;47687;50.842;4.450;2022-12-07T11:27:36;8.00;99.90
32977;DHT22;47687;50.842;4.450;2022-12-07T11:30:22;8.00;99.90
32977;DHT22;47687;50.842;4.450;2022-12-07T11:33:07;7.70;99.90
32977;DHT22;47687;50.842;4.450;2022-12-07T11:38:17;7.30;99.90
32977;DHT22;47687;50.842;4.450;2022-12-07T11:40:48;7.40;99.90
32977;DHT22;47687;50.842;4.450;2022-12-07T11:43:27;7.30;99.90
32977;DHT22;47687;50.842;4.450;2022-12-07T11:46:11;7.20;99.90
32977;DHT22;47687;50.842;4.450;2022-12-07T11:48:50;7.00;99.90
32977;DHT22;47687;50.842;4.450;2022-12-07T11:51:19;7.00;99.90
32977;DHT22;47687;50.842;4.450;2022-12-07T11:56:23;7.00;99.90
32977;DHT22;47687;50.842;4.450;2022-12-07T11:59:13;7.10;99.90
32977;DHT22;47687;50.842;4.450;2022-12-07T12:02:14;7.00;99.90
32977;DHT22;47687;50.842;4.450;2022-12-07T12:04:59;7.20;99.90
32977;DHT22;47687;50.842;4.450;2022-12-07T12:07:28;7.30;99.90
32977;DHT22;47687;50.842;4.450;2022-12-07T12:10:01;7.30;99.90
32977;DHT22;47687;50.842;4.450;2022-12-07T12:20:57;7.90;99.90
32977;DHT22;47687;50.842;4.450;2022-12-07T12:23:41;8.10;99.90
32977;DHT22;47687;50.842;4.450;2022-12-07T12:26:16;8.10;99.90
32977;DHT22;47687;50.842;4.450;2022-12-07T12:28:56;8.30;99.90
32977;DHT22;47687;50.842;4.450;2022-12-07T12:51:56;7.40;99.90
32977;DHT22;47687;50.842;4.450;2022-12-07T12:54:27;7.70;99.90
32977;DHT22;47687;50.842;4.450;2022-12-07T13:04:40;7.00;99.90
32977;DHT22;47687;50.842;4.450;2022-12-07T13:07:13;7.00;99.90
32977;DHT22;47687;50.842;4.450;2022-12-07T13:09:43;7.10;99.90
32977;DHT22;47687;50.842;4.450;2022-12-07T13:12:13;7.50;99.90
32977;DHT22;47687;50.842;4.450;2022-12-07T13:14:55;7.40;99.90
32977;DHT22;47687;50.842;4.450;2022-12-07T13:20:07;7.10;99.90
32977;DHT22;47687;50.842;4.450;2022-12-07T13:27:50;7.20;99.90
32977;DHT22;47687;50.842;4.450;2022-12-07T13:30:20;7.40;99.90
32977;DHT22;47687;50.842;4.450;2022-12-07T13:32:55;7.60;99.90
32977;DHT22;47687;50.842;4.450;2022-12-07T13:35:35;8.30;99.90
32977;DHT22;47687;50.842;4.450;2022-12-07T13:38:13;8.00;99.90
32977;DHT22;47687;50.842;4.450;2022-12-07T13:40:39;7.90;99.90
32977;DHT22;47687;50.842;4.450;2022-12-07T13:43:13;7.80;99.90
32977;DHT22;47687;50.842;4.450;2022-12-07T13:45:41;7.60;99.90
32977;DHT22;47687;50.842;4.450;2022-12-07T13:48:44;7.70;99.90
32977;DHT22;47687;50.842;4.450;2022-12-07T13:51:26;7.60;99.90
32977;DHT22;47687;50.842;4.450;2022-12-07T13:53:55;7.50;99.90
32977;DHT22;47687;50.842;4.450;2022-12-07T13:56:22;7.60;99.90
32977;DHT22;47687;50.842;4.450;2022-12-07T13:58:50;7.70;99.90
32977;DHT22;47687;50.842;4.450;2022-12-07T14:01:15;7.70;99.90
32977;DHT22;47687;50.842;4.450;2022-12-07T14:03:41;8.00;99.90
32977;DHT22;47687;50.842;4.450;2022-12-07T14:06:19;8.10;99.90
32977;DHT22;47687;50.842;4.450;2022-12-07T14:08:46;8.10;99.90
32977;DHT22;47687;50.842;4.450;2022-12-07T14:11:17;7.90;99.90
32977;DHT22;47687;50.842;4.450;2022-12-07T14:16:34;7.40;99.90
32977;DHT22;47687;50.842;4.450;2022-12-07T14:19:03;6.80;99.90
32977;DHT22;47687;50.842;4.450;2022-12-07T14:21:33;6.50;99.90
32977;DHT22;47687;50.842;4.450;2022-12-07T14:24:19;6.30;99.90
32977;DHT22;47687;50.842;4.450;2022-12-07T14:26:49;5.70;99.90
32977;DHT22;47687;50.842;4.450;2022-12-07T14:29:20;5.60;99.90
32977;DHT22;47687;50.842;4.450;2022-12-07T14:31:46;5.70;99.90
32977;DHT22;47687;50.842;4.450;2022-12-07T14:34:12;5.90;99.90
32977;DHT22;47687;50.842;4.450;2022-12-07T14:36:38;5.80;99.90
32977;DHT22;47687;50.842;4.450;2022-12-07T14:39:04;5.70;99.90
32977;DHT22;47687;50.842;4.450;2022-12-07T14:41:29;5.90;99.90
32977;DHT22;47687;50.842;4.450;2022-12-07T14:44:13;6.00;99.90
32977;DHT22;47687;50.842;4.450;2022-12-07T14:46:39;5.90;99.90
32977;DHT22;47687;50.842;4.450;2022-12-07T14:49:05;6.20;99.90
32977;DHT22;47687;50.842;4.450;2022-12-07T14:51:31;5.90;99.90
32977;DHT22;47687;50.842;4.450;2022-12-07T14:53:57;5.80;99.90
32977;DHT22;47687;50.842;4.450;2022-12-07T14:56:23;6.00;99.90
32977;DHT22;47687;50.842;4.450;2022-12-07T14:58:48;5.90;99.90
32977;DHT22;47687;50.842;4.450;2022-12-07T15:01:16;6.00;99.90
32977;DHT22;47687;50.842;4.450;2022-12-07T15:03:41;5.90;99.90
32977;DHT22;47687;50.842;4.450;2022-12-07T15:06:07;5.90;99.90
32977;DHT22;47687;50.842;4.450;2022-12-07T15:08:33;6.00;99.90
32977;DHT22;47687;50.842;4.450;2022-12-07T15:10:58;6.00;99.90
32977;DHT22;47687;50.842;4.450;2022-12-07T15:13:24;5.80;99.90
32977;DHT22;47687;50.842;4.450;2022-12-07T15:16:11;5.80;99.90
32977;DHT22;47687;50.842;4.450;2022-12-07T15:18:38;5.90;99.90
32977;DHT22;47687;50.842;4.450;2022-12-07T15:21:03;5.50;99.90
32977;DHT22;47687;50.842;4.450;2022-12-07T15:23:29;5.50;99.90
32977;DHT22;47687;50.842;4.450;2022-12-07T15:25:55;5.50;99.90
32977;DHT22;47687;50.842;4.450;2022-12-07T15:28:20;5.50;99.90
32977;DHT22;47687;50.842;4.450;2022-12-07T15:30:46;5.50;99.90
32977;DHT22;47687;50.842;4.450;2022-12-07T15:33:13;5.70;99.90
32977;DHT22;47687;50.842;4.450;2022-12-07T15:35:43;6.00;99.90
32977;DHT22;47687;50.842;4.450;2022-12-07T15:38:09;5.60;99.90
32977;DHT22;47687;50.842;4.450;2022-12-07T15:40:37;5.70;99.90
32977;DHT22;47687;50.842;4.450;2022-12-07T15:43:03;5.60;99.90
32977;DHT22;47687;50.842;4.450;2022-12-07T15:45:29;5.60;99.90
32977;DHT22;47687;50.842;4.450;2022-12-07T15:47:54;5.70;99.90
32977;DHT22;47687;50.842;4.450;2022-12-07T15:50:21;5.70;99.90
32977;DHT22;47687;50.842;4.450;2022-12-07T15:52:47;5.60;99.90
32977;DHT22;47687;50.842;4.450;2022-12-07T15:55:13;5.60;99.90
32977;DHT22;47687;50.842;4.450;2022-12-07T15:57:38;5.50;99.90
32977;DHT22;47687;50.842;4.450;2022-12-07T16:00:05;5.50;99.90
32977;DHT22;47687;50.842;4.450;2022-12-07T16:02:31;5.60;99.90
32977;DHT22;47687;50.842;4.450;2022-12-07T16:04:57;5.80;99.90
32977;DHT22;47687;50.842;4.450;2022-12-07T16:07:23;5.60;99.90
32977;DHT22;47687;50.842;4.450;2022-12-07T16:09:48;5.80;99.90
32977;DHT22;47687;50.842;4.450;2022-12-07T16:12:15;5.70;99.90
32977;DHT22;47687;50.842;4.450;2022-12-07T16:14:42;5.80;99.90
32977;DHT22;47687;50.842;4.450;2022-12-07T16:17:08;5.70;99.90
32977;DHT22;47687;50.842;4.450;2022-12-07T16:19:35;5.60;99.90
32977;DHT22;47687;50.842;4.450;2022-12-07T16:22:02;5.70;99.90
32977;DHT22;47687;50.842;4.450;2022-12-07T16:24:28;5.80;99.90
32977;DHT22;47687;50.842;4.450;2022-12-07T16:26:54;5.70;99.90
32977;DHT22;47687;50.842;4.450;2022-12-07T16:29:21;5.90;99.90
32977;DHT22;47687;50.842;4.450;2022-12-07T16:31:48;5.90;99.90
32977;DHT22;47687;50.842;4.450;2022-12-07T16:34:13;5.80;99.90
32977;DHT22;47687;50.842;4.450;2022-12-07T16:36:41;6.00;99.90
32977;DHT22;47687;50.842;4.450;2022-12-07T16:39:08;5.90;99.90
32977;DHT22;47687;50.842;4.450;2022-12-07T16:41:33;6.00;99.90
32977;DHT22;47687;50.842;4.450;2022-12-07T16:44:08;6.20;99.90
32977;DHT22;47687;50.842;4.450;2022-12-07T16:46:36;6.30;99.90
32977;DHT22;47687;50.842;4.450;2022-12-07T16:49:02;6.30;99.90
32977;DHT22;47687;50.842;4.450;2022-12-07T16:51:28;6.40;99.90
32977;DHT22;47687;50.842;4.450;2022-12-07T16:53:55;6.20;99.90
32977;DHT22;47687;50.842;4.450;2022-12-07T16:56:21;6.20;99.90
32977;DHT22;47687;50.842;4.450;2022-12-07T16:58:48;6.10;99.90
32977;DHT22;47687;50.842;4.450;2022-12-07T17:01:17;6.30;99.90
32977;DHT22;47687;50.842;4.450;2022-12-07T17:03:43;6.20;99.90
32977;DHT22;47687;50.842;4.450;2022-12-07T17:06:14;6.40;99.90
32977;DHT22;47687;50.842;4.450;2022-12-07T17:08:40;6.30;99.90
32977;DHT22;47687;50.842;4.450;2022-12-07T17:11:13;6.20;99.90
32977;DHT22;47687;50.842;4.450;2022-12-07T17:13:39;6.00;99.90
32977;DHT22;47687;50.842;4.450;2022-12-07T17:16:25;6.10;99.90
32977;DHT22;47687;50.842;4.450;2022-12-07T17:18:51;6.20;99.90
32977;DHT22;47687;50.842;4.450;2022-12-07T17:21:16;6.00;99.90
32977;DHT22;47687;50.842;4.450;2022-12-07T17:23:42;6.00;99.90
32977;DHT22;47687;50.842;4.450;2022-12-07T17:26:12;5.90;99.90
32977;DHT22;47687;50.842;4.450;2022-12-07T17:28:39;5.90;99.90
32977;DHT22;47687;50.842;4.450;2022-12-07T17:31:07;5.80;99.90
32977;DHT22;47687;50.842;4.450;2022-12-07T17:33:33;5.70;99.90
32977;DHT22;47687;50.842;4.450;2022-12-07T17:35:59;5.60;99.90
32977;DHT22;47687;50.842;4.450;2022-12-07T17:38:27;5.60;99.90